createdAt,value
2023-01-17T00:00:33.163Z,-1.00
2023-01-17T00:02:59.721Z,-0.99
2023-01-17T00:05:44.731Z,-0.83
2023-01-17T00:08:33.025Z,-0.77
2023-01-17T00:10:59.563Z,-0.83
2023-01-17T00:13:28.281Z,-0.88
2023-01-17T00:15:54.760Z,-0.85
2023-01-17T00:18:21.235Z,-0.69
2023-01-17T00:21:06.516Z,-0.60
2023-01-17T00:23:52.491Z,-0.62
2023-01-17T00:26:19.896Z,-0.64
2023-01-17T00:28:46.721Z,-0.64
2023-01-17T00:31:14.174Z,-0.53
2023-01-17T00:33:40.739Z,-0.47
2023-01-17T00:36:07.679Z,-0.41
2023-01-17T00:38:35.949Z,-0.26
2023-01-17T00:41:14.532Z,-0.15
2023-01-17T00:44:01.944Z,0.01
2023-01-17T00:46:47.078Z,0.00
2023-01-17T00:49:32.308Z,0.02
2023-01-17T00:52:17.452Z,0.06
2023-01-17T00:55:02.401Z,0.14
2023-01-17T00:57:47.193Z,0.25
2023-01-17T01:00:32.720Z,0.21
2023-01-17T01:03:17.861Z,0.19
2023-01-17T01:06:02.765Z,0.30
2023-01-17T01:08:48.735Z,0.36
2023-01-17T01:11:36.318Z,0.29
2023-01-17T01:14:21.740Z,0.30
2023-01-17T01:17:07.056Z,0.31
2023-01-17T01:19:52.466Z,0.36
2023-01-17T01:22:37.444Z,0.44
2023-01-17T01:25:23.902Z,0.44
2023-01-17T01:28:08.741Z,0.42
2023-01-17T01:30:53.933Z,0.44
2023-01-17T01:33:20.524Z,0.45
2023-01-17T01:35:56.223Z,0.50
2023-01-17T01:38:26.272Z,0.52
2023-01-17T01:40:56.026Z,0.48
2023-01-17T01:43:41.104Z,0.46
2023-01-17T01:46:09.814Z,0.51
2023-01-17T01:48:56.569Z,0.51
2023-01-17T01:51:27.816Z,0.49
2023-01-17T01:53:56.000Z,0.53
2023-01-17T01:56:23.480Z,0.53
2023-01-17T01:58:51.463Z,0.54
2023-01-17T02:01:18.559Z,0.60
2023-01-17T02:03:45.853Z,0.64
2023-01-17T02:06:15.064Z,0.65
2023-01-17T02:08:43.413Z,0.63
2023-01-17T02:11:12.344Z,0.63
2023-01-17T02:13:40.440Z,0.64
2023-01-17T02:16:19.334Z,0.66
2023-01-17T02:19:04.748Z,0.70
2023-01-17T02:21:37.256Z,0.71
2023-01-17T02:24:08.651Z,0.67
2023-01-17T02:26:47.135Z,0.68
2023-01-17T02:29:19.740Z,0.75
2023-01-17T02:31:49.023Z,0.65
2023-01-17T02:34:15.495Z,0.54
2023-01-17T02:36:51.220Z,0.50
2023-01-17T02:39:22.885Z,0.61
2023-01-17T02:41:53.834Z,0.65
2023-01-17T02:44:21.146Z,0.51
2023-01-17T02:46:48.741Z,0.55
2023-01-17T02:49:21.794Z,0.67
2023-01-17T02:51:54.144Z,0.71
2023-01-17T02:54:44.163Z,0.59
2023-01-17T02:57:19.577Z,0.55
2023-01-17T03:00:06.248Z,0.58
2023-01-17T03:02:51.285Z,0.68
2023-01-17T03:05:21.745Z,0.60
2023-01-17T03:07:48.935Z,0.57
2023-01-17T03:10:16.466Z,0.55
2023-01-17T03:12:43.034Z,0.62
2023-01-17T03:15:10.959Z,0.65
2023-01-17T03:17:37.828Z,0.60
2023-01-17T03:20:04.525Z,0.57
2023-01-17T03:22:31.041Z,0.58
2023-01-17T03:24:58.981Z,0.69
2023-01-17T03:27:25.516Z,0.69
2023-01-17T03:29:51.973Z,0.64
2023-01-17T03:32:18.487Z,0.62
2023-01-17T03:34:44.973Z,0.63
2023-01-17T03:37:12.469Z,0.75
2023-01-17T03:39:38.931Z,0.71
2023-01-17T03:42:05.417Z,0.67
2023-01-17T03:44:31.895Z,0.64
2023-01-17T03:47:00.613Z,0.70
2023-01-17T03:49:27.084Z,0.81
2023-01-17T03:51:53.536Z,0.72
2023-01-17T03:54:19.970Z,0.68
2023-01-17T03:56:46.467Z,0.68
2023-01-17T03:59:13.354Z,0.77
2023-01-17T04:01:40.015Z,0.85
2023-01-17T04:04:06.548Z,0.78
2023-01-17T04:06:33.002Z,0.75
2023-01-17T04:08:59.501Z,0.73
2023-01-17T04:11:25.968Z,0.81
2023-01-17T04:13:52.452Z,0.83
2023-01-17T04:16:19.671Z,0.80
2023-01-17T04:18:46.169Z,0.78
2023-01-17T04:21:12.639Z,0.85
2023-01-17T04:23:41.254Z,0.94
2023-01-17T04:26:09.128Z,0.87
2023-01-17T04:28:35.641Z,0.86
2023-01-17T04:31:02.126Z,0.89
2023-01-17T04:33:28.640Z,0.98
2023-01-17T04:35:55.239Z,0.91
2023-01-17T04:38:21.999Z,0.87
2023-01-17T04:40:48.747Z,1.00
2023-01-17T04:43:15.621Z,1.04
2023-01-17T04:45:42.131Z,1.09
2023-01-17T04:48:12.164Z,1.17
2023-01-17T04:50:39.207Z,1.20
2023-01-17T04:53:05.656Z,1.22
2023-01-17T04:55:32.211Z,1.26
2023-01-17T04:57:58.721Z,1.33
2023-01-17T05:00:25.278Z,1.38
2023-01-17T05:02:52.126Z,1.35
2023-01-17T05:05:18.640Z,1.35
2023-01-17T05:07:52.384Z,1.38
2023-01-17T05:10:20.918Z,1.35
2023-01-17T05:12:54.119Z,1.32
2023-01-17T05:15:20.768Z,1.30
2023-01-17T05:17:47.199Z,1.15
2023-01-17T05:20:13.725Z,1.16
2023-01-17T05:22:40.167Z,1.24
2023-01-17T05:25:07.618Z,1.27
2023-01-17T05:27:34.155Z,1.30
2023-01-17T05:30:00.644Z,1.30
2023-01-17T05:32:27.105Z,1.20
2023-01-17T05:34:53.614Z,1.17
2023-01-17T05:37:20.100Z,1.25
2023-01-17T05:39:46.598Z,1.32
2023-01-17T05:42:13.044Z,1.34
2023-01-17T05:44:39.486Z,1.19
2023-01-17T05:47:06.009Z,1.19
2023-01-17T05:49:32.522Z,1.28
2023-01-17T05:51:58.988Z,1.33
2023-01-17T05:54:25.432Z,1.30
2023-01-17T05:56:51.873Z,1.17
2023-01-17T05:59:28.601Z,1.21
2023-01-17T06:02:02.611Z,1.26
2023-01-17T06:04:29.395Z,1.28
2023-01-17T06:06:55.916Z,1.26
2023-01-17T06:09:22.407Z,1.17
2023-01-17T06:11:48.891Z,1.21
2023-01-17T06:14:15.320Z,1.29
2023-01-17T06:16:41.931Z,1.33
2023-01-17T06:19:09.523Z,1.29
2023-01-17T06:21:35.966Z,1.18
2023-01-17T06:24:04.224Z,1.25
2023-01-17T06:26:31.750Z,1.32
2023-01-17T06:29:03.983Z,1.36
2023-01-17T06:31:31.869Z,1.29
2023-01-17T06:34:01.571Z,1.23
2023-01-17T06:36:28.036Z,1.33
2023-01-17T06:38:54.527Z,1.35
2023-01-17T06:41:23.214Z,1.31
2023-01-17T06:43:49.712Z,1.21
2023-01-17T06:46:16.271Z,1.27
2023-01-17T06:48:45.651Z,1.32
2023-01-17T06:51:12.125Z,1.31
2023-01-17T06:53:38.774Z,1.20
2023-01-17T06:56:05.394Z,1.30
2023-01-17T06:58:31.850Z,1.38
2023-01-17T07:00:58.585Z,1.36
2023-01-17T07:03:26.397Z,1.26
2023-01-17T07:05:53.223Z,1.21
2023-01-17T07:08:20.532Z,1.35
2023-01-17T07:10:47.518Z,1.39
2023-01-17T07:13:14.431Z,1.26
2023-01-17T07:15:41.007Z,1.25
2023-01-17T07:18:07.500Z,1.35
2023-01-17T07:20:34.004Z,1.37
2023-01-17T07:23:00.515Z,1.28
2023-01-17T07:25:27.923Z,1.27
2023-01-17T07:27:57.660Z,1.39
2023-01-17T07:30:24.347Z,1.33
2023-01-17T07:32:52.171Z,1.25
2023-01-17T07:35:18.769Z,1.35
2023-01-17T07:37:51.571Z,1.36
2023-01-17T07:40:19.022Z,1.26
2023-01-17T07:42:45.836Z,1.32
2023-01-17T07:45:13.131Z,1.42
2023-01-17T07:47:39.952Z,1.26
2023-01-17T07:50:07.052Z,1.30
2023-01-17T07:52:33.495Z,1.41
2023-01-17T07:55:02.091Z,1.27
2023-01-17T07:57:28.599Z,1.26
2023-01-17T07:59:55.166Z,1.36
2023-01-17T08:02:22.390Z,1.27
2023-01-17T08:04:49.618Z,1.25
2023-01-17T08:07:16.468Z,1.35
2023-01-17T08:09:43.877Z,1.20
2023-01-17T08:12:10.698Z,1.21
2023-01-17T08:14:37.172Z,1.25
2023-01-17T08:17:11.481Z,1.14
2023-01-17T08:19:37.958Z,1.18
2023-01-17T08:22:04.460Z,1.21
2023-01-17T08:24:32.195Z,1.12
2023-01-17T08:26:59.316Z,1.21
2023-01-17T08:29:25.897Z,1.20
2023-01-17T08:31:52.434Z,1.12
2023-01-17T08:34:19.083Z,1.22
2023-01-17T08:36:47.899Z,1.18
2023-01-17T08:39:14.760Z,1.12
2023-01-17T08:41:41.289Z,1.27
2023-01-17T08:44:07.748Z,1.18
2023-01-17T08:46:34.250Z,1.13
2023-01-17T08:49:02.652Z,1.25
2023-01-17T08:51:29.932Z,1.18
2023-01-17T08:53:56.647Z,1.16
2023-01-17T08:56:26.941Z,1.25
2023-01-17T08:58:53.697Z,1.15
2023-01-17T09:01:20.283Z,1.17
2023-01-17T09:03:48.389Z,1.29
2023-01-17T09:06:15.551Z,1.18
2023-01-17T09:08:42.077Z,1.23
2023-01-17T09:11:09.873Z,1.33
2023-01-17T09:13:36.726Z,1.21
2023-01-17T09:16:03.878Z,1.25
2023-01-17T09:18:30.962Z,1.29
2023-01-17T09:20:59.339Z,1.19
2023-01-17T09:23:27.276Z,1.26
2023-01-17T09:25:58.216Z,1.30
2023-01-17T09:28:25.465Z,1.24
2023-01-17T09:30:52.367Z,1.31
2023-01-17T09:33:19.179Z,1.34
2023-01-17T09:35:46.328Z,1.23
2023-01-17T09:38:13.229Z,1.31
2023-01-17T09:40:44.765Z,1.31
2023-01-17T09:43:26.278Z,1.23
2023-01-17T09:45:53.010Z,1.30
2023-01-17T09:48:30.127Z,1.28
2023-01-17T09:51:01.217Z,1.20
2023-01-17T09:53:33.664Z,1.32
2023-01-17T09:56:07.673Z,1.28
2023-01-17T09:58:34.120Z,1.19
2023-01-17T10:01:19.217Z,1.29
2023-01-17T10:03:52.075Z,1.23
2023-01-17T10:06:36.059Z,1.21
2023-01-17T10:09:21.203Z,1.36
2023-01-17T10:11:47.623Z,1.23
2023-01-17T10:14:32.965Z,1.23
2023-01-17T10:17:10.230Z,1.31
2023-01-17T10:19:39.756Z,1.21
2023-01-17T10:22:12.142Z,1.21
2023-01-17T10:24:57.188Z,1.35
2023-01-17T10:27:32.282Z,1.25
2023-01-17T10:29:59.880Z,1.25
2023-01-17T10:32:29.672Z,1.33
2023-01-17T10:34:58.237Z,1.21
2023-01-17T10:37:27.995Z,1.24
2023-01-17T10:39:56.852Z,1.32
2023-01-17T10:42:35.830Z,1.23
2023-01-17T10:45:05.672Z,1.25
2023-01-17T10:47:34.948Z,1.35
2023-01-17T10:50:03.593Z,1.27
2023-01-17T10:52:53.323Z,1.28
2023-01-17T10:55:32.055Z,1.41
2023-01-17T10:57:58.812Z,1.31
2023-01-17T11:00:43.845Z,1.36
2023-01-17T11:03:11.299Z,1.46
2023-01-17T11:05:37.812Z,1.34
2023-01-17T11:08:05.747Z,1.30
2023-01-17T11:10:54.168Z,1.40
2023-01-17T11:13:31.284Z,1.35
2023-01-17T11:16:00.777Z,1.39
2023-01-17T11:18:29.100Z,1.49
2023-01-17T11:21:18.021Z,1.32
2023-01-17T11:23:49.716Z,1.27
2023-01-17T11:26:30.375Z,1.37
2023-01-17T11:29:15.813Z,1.31
2023-01-17T11:31:42.366Z,1.30
2023-01-17T11:34:16.654Z,1.37
2023-01-17T11:36:45.709Z,1.27
2023-01-17T11:39:20.240Z,1.23
2023-01-17T11:41:52.182Z,1.29
2023-01-17T11:44:26.419Z,1.25
2023-01-17T11:47:09.713Z,1.20
2023-01-17T11:49:38.173Z,1.26
2023-01-17T11:52:10.455Z,1.18
2023-01-17T11:54:42.635Z,1.15
2023-01-17T11:57:19.960Z,1.24
2023-01-17T11:59:47.696Z,1.24
2023-01-17T12:02:15.699Z,1.18
2023-01-17T12:04:57.446Z,1.22
2023-01-17T12:07:29.764Z,1.19
2023-01-17T12:10:02.472Z,1.14
2023-01-17T12:12:54.388Z,1.13
2023-01-17T12:15:36.066Z,1.25
2023-01-17T12:18:11.544Z,1.12
2023-01-17T12:20:49.369Z,1.21
2023-01-17T12:23:36.503Z,1.15
2023-01-17T12:26:06.428Z,1.07
2023-01-17T12:28:36.030Z,1.07
2023-01-17T12:31:02.610Z,1.14
2023-01-17T12:33:41.287Z,1.06
2023-01-17T12:36:17.635Z,1.08
2023-01-17T12:38:45.361Z,1.14
2023-01-17T12:41:24.423Z,1.03
2023-01-17T12:43:54.645Z,1.00
2023-01-17T12:46:27.270Z,1.07
2023-01-17T12:49:04.495Z,1.12
2023-01-17T12:51:33.733Z,0.99
2023-01-17T12:54:05.327Z,1.10
2023-01-17T12:56:37.052Z,1.09
2023-01-17T12:59:14.853Z,1.00
2023-01-17T13:01:43.890Z,0.92
2023-01-17T13:04:11.139Z,1.10
2023-01-17T13:06:56.045Z,1.02
2023-01-17T13:09:23.544Z,0.94
2023-01-17T13:11:52.889Z,1.08
2023-01-17T13:14:19.435Z,0.97
2023-01-17T13:16:59.343Z,0.94
2023-01-17T13:19:49.868Z,0.95
2023-01-17T13:22:18.624Z,1.05
2023-01-17T13:24:55.396Z,0.94
2023-01-17T13:27:45.255Z,1.01
2023-01-17T13:30:23.933Z,1.06
2023-01-17T13:33:15.233Z,0.96
2023-01-17T13:35:50.800Z,0.92
2023-01-17T13:38:23.103Z,1.08
2023-01-17T13:41:07.777Z,0.96
2023-01-17T13:43:35.959Z,0.96
2023-01-17T13:46:03.563Z,1.05
2023-01-17T13:48:41.033Z,0.90
2023-01-17T13:51:08.942Z,0.84
2023-01-17T13:53:35.483Z,0.88
2023-01-17T13:56:20.669Z,1.01
2023-01-17T13:58:58.210Z,0.85
2023-01-17T14:01:24.957Z,0.87
2023-01-17T14:03:51.771Z,0.96
2023-01-17T14:06:33.376Z,0.82
2023-01-17T14:09:05.299Z,0.78
2023-01-17T14:11:36.222Z,0.85
2023-01-17T14:14:21.267Z,0.93
2023-01-17T14:16:47.764Z,0.78
2023-01-17T14:19:26.697Z,0.89
2023-01-17T14:22:13.076Z,0.85
2023-01-17T14:24:59.886Z,0.75
2023-01-17T14:27:29.205Z,0.72
2023-01-17T14:29:59.291Z,0.91
2023-01-17T14:32:33.418Z,0.78
2023-01-17T14:35:00.105Z,0.72
2023-01-17T14:37:42.342Z,0.86
2023-01-17T14:40:20.230Z,0.80
2023-01-17T14:42:47.991Z,0.73
2023-01-17T14:45:18.404Z,0.71
2023-01-17T14:47:45.864Z,0.87
2023-01-17T14:50:22.612Z,0.76
2023-01-17T14:53:06.224Z,0.73
2023-01-17T14:55:32.672Z,0.87
2023-01-17T14:57:59.242Z,0.75
2023-01-17T15:00:31.083Z,0.70
2023-01-17T15:02:59.387Z,0.71
2023-01-17T15:05:27.428Z,0.85
2023-01-17T15:07:54.847Z,0.73
2023-01-17T15:10:27.025Z,0.69
2023-01-17T15:12:54.701Z,0.82
2023-01-17T15:15:30.403Z,0.74
2023-01-17T15:18:15.650Z,0.70
2023-01-17T15:20:43.626Z,0.70
2023-01-17T15:23:14.416Z,0.86
2023-01-17T15:25:44.182Z,0.77
2023-01-17T15:28:13.122Z,0.69
2023-01-17T15:30:59.978Z,0.83
2023-01-17T15:33:26.564Z,0.73
2023-01-17T15:36:10.175Z,0.70
2023-01-17T15:38:40.535Z,0.72
2023-01-17T15:41:10.082Z,0.79
2023-01-17T15:43:38.587Z,0.68
2023-01-17T15:46:05.461Z,0.69
2023-01-17T15:48:41.043Z,0.82
2023-01-17T15:51:08.566Z,0.67
2023-01-17T15:53:37.317Z,0.63
2023-01-17T15:56:22.781Z,0.65
2023-01-17T15:58:50.579Z,0.74
2023-01-17T16:01:17.980Z,0.64
2023-01-17T16:03:54.728Z,0.60
2023-01-17T16:06:45.464Z,0.67
2023-01-17T16:09:22.714Z,0.61
2023-01-17T16:11:49.428Z,0.55
2023-01-17T16:14:15.871Z,0.63
2023-01-17T16:16:52.856Z,0.57
2023-01-17T16:19:20.557Z,0.52
2023-01-17T16:21:48.422Z,0.51
2023-01-17T16:24:15.177Z,0.53
2023-01-17T16:26:42.272Z,0.62
2023-01-17T16:29:10.228Z,0.53
2023-01-17T16:31:36.888Z,0.48
2023-01-17T16:34:03.376Z,0.47
2023-01-17T16:36:29.882Z,0.45
2023-01-17T16:38:56.353Z,0.45
2023-01-17T16:41:22.951Z,0.41
2023-01-17T16:44:00.084Z,0.40
2023-01-17T16:46:27.064Z,0.37
2023-01-17T16:48:53.592Z,0.39
2023-01-17T16:51:20.107Z,0.38
2023-01-17T16:53:46.691Z,0.39
2023-01-17T16:56:14.869Z,0.38
2023-01-17T16:58:41.568Z,0.44
2023-01-17T17:01:08.956Z,0.59
2023-01-17T17:03:35.457Z,0.54
2023-01-17T17:06:01.999Z,0.44
2023-01-17T17:08:31.107Z,0.41
2023-01-17T17:11:08.006Z,0.40
2023-01-17T17:13:35.597Z,0.34
2023-01-17T17:16:02.982Z,0.36
2023-01-17T17:18:29.852Z,0.42
2023-01-17T17:21:00.806Z,0.56
2023-01-17T17:23:27.307Z,0.44
2023-01-17T17:25:56.493Z,0.39
2023-01-17T17:28:22.982Z,0.38
2023-01-17T17:30:49.729Z,0.36
2023-01-17T17:33:16.301Z,0.36
2023-01-17T17:35:42.766Z,0.37
2023-01-17T17:38:09.202Z,0.35
2023-01-17T17:40:36.025Z,0.47
2023-01-17T17:43:02.492Z,0.44
2023-01-17T17:45:28.987Z,0.40
2023-01-17T17:47:55.533Z,0.37
2023-01-17T17:50:22.034Z,0.38
2023-01-17T17:52:48.509Z,0.50
2023-01-17T17:55:19.088Z,0.58
2023-01-17T17:57:46.172Z,0.50
2023-01-17T18:00:12.796Z,0.45
2023-01-17T18:02:39.314Z,0.43
2023-01-17T18:05:06.136Z,0.55
2023-01-17T18:07:32.777Z,0.63
2023-01-17T18:09:59.239Z,0.58
2023-01-17T18:12:25.711Z,0.54
2023-01-17T18:14:52.258Z,0.57
2023-01-17T18:17:20.380Z,0.63
2023-01-17T18:19:46.828Z,0.60
2023-01-17T18:22:15.372Z,0.55
2023-01-17T18:24:41.896Z,0.51
2023-01-17T18:27:10.464Z,0.56
2023-01-17T18:29:37.124Z,0.64
2023-01-17T18:32:03.590Z,0.62
2023-01-17T18:34:31.859Z,0.63
2023-01-17T18:36:58.441Z,0.61
2023-01-17T18:39:26.392Z,0.67
2023-01-17T18:41:53.939Z,0.68
2023-01-17T18:44:22.135Z,0.69
2023-01-17T18:46:52.060Z,0.66
2023-01-17T18:49:21.306Z,0.68
2023-01-17T18:51:51.482Z,0.73
2023-01-17T18:54:18.800Z,0.69
2023-01-17T18:56:45.305Z,0.58
2023-01-17T18:59:18.187Z,0.61
2023-01-17T19:01:44.997Z,0.66
2023-01-17T19:04:12.600Z,0.67
2023-01-17T19:06:40.402Z,0.42
2023-01-17T19:09:07.595Z,0.38
2023-01-17T19:11:34.925Z,0.55
2023-01-17T19:14:01.438Z,0.66
2023-01-17T19:16:29.505Z,0.69
2023-01-17T19:18:56.701Z,0.52
2023-01-17T19:21:24.392Z,0.57
2023-01-17T19:23:50.896Z,0.55
2023-01-17T19:26:19.995Z,0.46
2023-01-17T19:28:48.348Z,0.49
2023-01-17T19:31:22.699Z,0.53
2023-01-17T19:33:50.707Z,0.43
2023-01-17T19:36:18.778Z,0.55
2023-01-17T19:39:02.977Z,0.45
2023-01-17T19:41:31.171Z,0.38
2023-01-17T19:43:58.759Z,0.37
2023-01-17T19:46:27.302Z,0.46
2023-01-17T19:48:55.097Z,0.49
2023-01-17T19:51:21.589Z,0.41
2023-01-17T19:53:48.296Z,0.48
2023-01-17T19:56:16.412Z,0.55
2023-01-17T19:58:43.537Z,0.42
2023-01-17T20:01:11.504Z,0.53
2023-01-17T20:03:38.823Z,0.51
2023-01-17T20:06:08.881Z,0.42
2023-01-17T20:08:38.171Z,0.39
2023-01-17T20:11:05.567Z,0.37
2023-01-17T20:13:32.066Z,0.34
2023-01-17T20:16:02.668Z,0.39
2023-01-17T20:18:29.212Z,0.54
2023-01-17T20:20:57.494Z,0.54
2023-01-17T20:23:24.141Z,0.45
2023-01-17T20:26:01.794Z,0.41
2023-01-17T20:28:29.139Z,0.43
2023-01-17T20:30:56.115Z,0.56
2023-01-17T20:33:23.247Z,0.56
2023-01-17T20:35:58.094Z,0.49
2023-01-17T20:38:43.484Z,0.45
2023-01-17T20:41:11.319Z,0.49
2023-01-17T20:43:37.970Z,0.65
2023-01-17T20:46:05.431Z,0.64
2023-01-17T20:48:32.019Z,0.52
2023-01-17T20:51:05.799Z,0.48
2023-01-17T20:53:33.640Z,0.52
2023-01-17T20:56:00.280Z,0.73
2023-01-17T20:58:26.902Z,0.72
2023-01-17T21:00:54.807Z,0.57
2023-01-17T21:03:23.680Z,0.52
2023-01-17T21:05:50.643Z,0.50
2023-01-17T21:08:18.680Z,0.48
2023-01-17T21:10:47.068Z,0.50
2023-01-17T21:13:13.620Z,0.51
2023-01-17T21:15:43.915Z,0.50
2023-01-17T21:18:10.391Z,0.60
2023-01-17T21:20:36.823Z,0.73
2023-01-17T21:23:03.284Z,0.63
2023-01-17T21:25:30.618Z,0.57
2023-01-17T21:27:57.919Z,0.55
2023-01-17T21:30:24.721Z,0.55
2023-01-17T21:32:51.162Z,0.56
2023-01-17T21:35:19.769Z,0.60
2023-01-17T21:37:51.644Z,0.76
2023-01-17T21:40:18.645Z,0.69
2023-01-17T21:42:45.249Z,0.64
2023-01-17T21:45:11.711Z,0.62
2023-01-17T21:47:38.264Z,0.61
2023-01-17T21:50:04.840Z,0.61
2023-01-17T21:52:31.675Z,0.66
2023-01-17T21:55:16.535Z,0.67
2023-01-17T21:58:15.072Z,0.80
2023-01-17T22:00:44.375Z,0.89
2023-01-17T22:03:10.899Z,0.82
2023-01-17T22:05:37.468Z,0.81
2023-01-17T22:08:22.537Z,0.80
2023-01-17T22:10:49.005Z,0.80
2023-01-17T22:13:16.810Z,0.80
2023-01-17T22:15:43.702Z,0.82
2023-01-17T22:18:10.868Z,0.90
2023-01-17T22:20:41.323Z,0.93
2023-01-17T22:23:08.588Z,0.92
2023-01-17T22:25:37.459Z,0.90
2023-01-17T22:28:04.150Z,0.90
2023-01-17T22:30:30.611Z,0.92
2023-01-17T22:32:58.237Z,0.94
2023-01-17T22:35:25.097Z,0.92
2023-01-17T22:37:54.523Z,0.95
2023-01-17T22:40:21.245Z,0.93
2023-01-17T22:42:47.799Z,0.99
2023-01-17T22:45:14.296Z,1.05
2023-01-17T22:47:40.753Z,1.06
2023-01-17T22:50:07.551Z,1.14
2023-01-17T22:52:35.752Z,1.04
2023-01-17T22:55:02.235Z,0.84
2023-01-17T22:57:28.690Z,0.75
2023-01-17T22:59:55.228Z,0.76
2023-01-17T23:02:21.780Z,0.93
2023-01-17T23:04:49.103Z,0.84
2023-01-17T23:07:15.812Z,0.75
2023-01-17T23:09:42.241Z,0.83
2023-01-17T23:12:08.770Z,0.94
2023-01-17T23:14:54.691Z,0.98
2023-01-17T23:17:40.650Z,0.99
2023-01-17T23:20:08.676Z,0.90
2023-01-17T23:22:35.690Z,1.03
2023-01-17T23:25:14.213Z,0.94
2023-01-17T23:28:03.712Z,0.91
2023-01-17T23:30:36.316Z,0.97
2023-01-17T23:33:08.828Z,0.86
2023-01-17T23:35:42.112Z,0.95
2023-01-17T23:38:31.301Z,0.93
2023-01-17T23:41:19.335Z,0.86
2023-01-17T23:43:50.481Z,0.94
2023-01-17T23:46:17.044Z,0.91
2023-01-17T23:48:43.497Z,0.81
2023-01-17T23:51:10.038Z,0.82
2023-01-17T23:53:39.186Z,0.95
2023-01-17T23:56:09.963Z,0.88
2023-01-17T23:58:36.474Z,0.90
